createdAt,value
2022-10-06T00:00:49.900Z,7.60
2022-10-06T00:03:32.886Z,6.40
2022-10-06T00:06:00.944Z,7.30
2022-10-06T00:08:28.068Z,5.80
2022-10-06T00:10:55.857Z,14.60
2022-10-06T00:13:23.983Z,10.30
2022-10-06T00:15:50.905Z,6.70
2022-10-06T00:18:17.465Z,8.50
2022-10-06T00:20:44.015Z,10.60
2022-10-06T00:23:11.402Z,5.60
2022-10-06T00:25:37.848Z,10.20
2022-10-06T00:28:04.416Z,6.20
2022-10-06T00:30:31.039Z,7.30
2022-10-06T00:33:04.004Z,5.50
2022-10-06T00:35:33.872Z,6.90
2022-10-06T00:38:02.312Z,5.80
2022-10-06T00:40:31.700Z,8.20
2022-10-06T00:43:05.691Z,6.80
2022-10-06T00:45:40.497Z,15.00
2022-10-06T00:48:17.692Z,6.30
2022-10-06T00:50:46.083Z,8.60
2022-10-06T00:53:16.153Z,4.80
2022-10-06T00:55:43.603Z,6.50
2022-10-06T00:58:10.628Z,5.90
2022-10-06T01:00:39.435Z,5.80
2022-10-06T01:03:10.755Z,7.50
2022-10-06T01:05:43.612Z,5.00
2022-10-06T01:08:10.252Z,6.80
2022-10-06T01:10:37.428Z,4.90
2022-10-06T01:13:06.239Z,5.70
2022-10-06T01:15:36.661Z,9.20
2022-10-06T01:18:17.259Z,6.70
2022-10-06T01:21:07.083Z,6.50
2022-10-06T01:23:35.832Z,6.20
2022-10-06T01:26:07.116Z,7.00
2022-10-06T01:28:34.388Z,6.90
2022-10-06T01:31:04.001Z,6.60
2022-10-06T01:33:35.432Z,6.50
2022-10-06T01:36:04.632Z,5.80
2022-10-06T01:38:31.881Z,10.70
2022-10-06T01:41:03.522Z,9.10
2022-10-06T01:43:30.539Z,5.40
2022-10-06T01:45:59.012Z,7.80
2022-10-06T01:48:26.989Z,7.80
2022-10-06T01:50:57.478Z,9.40
2022-10-06T01:53:23.992Z,7.60
2022-10-06T01:55:51.544Z,7.20
2022-10-06T01:58:25.491Z,8.80
2022-10-06T02:00:53.845Z,7.90
2022-10-06T02:03:20.366Z,5.70
2022-10-06T02:05:47.717Z,4.90
2022-10-06T02:08:14.388Z,5.00
2022-10-06T02:10:42.296Z,9.00
2022-10-06T02:13:17.156Z,6.20
2022-10-06T02:15:44.020Z,6.90
2022-10-06T02:18:10.621Z,6.60
2022-10-06T02:20:38.078Z,9.60
2022-10-06T02:23:05.031Z,4.90
2022-10-06T02:25:31.564Z,6.10
2022-10-06T02:28:00.009Z,6.70
2022-10-06T02:30:27.189Z,7.60
2022-10-06T02:32:57.105Z,7.40
2022-10-06T02:35:26.290Z,5.40
2022-10-06T02:37:55.148Z,6.40
2022-10-06T02:40:24.968Z,4.90
2022-10-06T02:42:51.439Z,5.30
2022-10-06T02:45:20.795Z,5.90
2022-10-06T02:47:49.109Z,5.20
2022-10-06T02:50:18.528Z,6.30
2022-10-06T02:52:45.245Z,6.50
2022-10-06T02:55:13.486Z,5.40
2022-10-06T02:57:39.956Z,6.50
2022-10-06T03:00:10.342Z,6.60
2022-10-06T03:02:40.006Z,6.30
2022-10-06T03:05:07.552Z,7.20
2022-10-06T03:07:34.602Z,7.50
2022-10-06T03:10:03.086Z,4.70
2022-10-06T03:12:32.454Z,6.80
2022-10-06T03:14:59.615Z,4.70
2022-10-06T03:17:28.460Z,6.00
2022-10-06T03:19:59.445Z,6.70
2022-10-06T03:22:36.058Z,5.50
2022-10-06T03:25:03.509Z,5.40
2022-10-06T03:27:30.009Z,6.10
2022-10-06T03:29:59.684Z,6.20
2022-10-06T03:32:27.496Z,5.60
2022-10-06T03:34:54.532Z,5.60
2022-10-06T03:37:22.287Z,4.60
2022-10-06T03:39:50.279Z,5.80
2022-10-06T03:42:19.550Z,5.60
2022-10-06T03:44:47.028Z,5.70
2022-10-06T03:47:17.202Z,5.80
2022-10-06T03:49:46.759Z,4.90
2022-10-06T03:52:14.484Z,6.60
2022-10-06T03:54:41.258Z,5.00
2022-10-06T03:57:08.689Z,5.50
2022-10-06T03:59:36.326Z,6.00
2022-10-06T04:02:04.686Z,5.20
2022-10-06T04:04:34.861Z,6.00
2022-10-06T04:07:06.155Z,4.50
2022-10-06T04:09:32.749Z,7.80
2022-10-06T04:12:01.213Z,6.00
2022-10-06T04:14:29.166Z,6.10
2022-10-06T04:16:57.070Z,5.30
2022-10-06T04:19:35.216Z,5.70
2022-10-06T04:22:02.352Z,5.60
2022-10-06T04:24:32.180Z,8.20
2022-10-06T04:27:19.286Z,5.30
2022-10-06T04:30:03.715Z,7.90
2022-10-06T04:32:33.213Z,7.60
2022-10-06T04:35:02.823Z,6.60
2022-10-06T04:37:30.545Z,5.50
2022-10-06T04:39:58.709Z,8.60
2022-10-06T04:42:25.984Z,6.80
2022-10-06T04:44:52.695Z,6.30
2022-10-06T04:47:20.411Z,6.50
2022-10-06T04:49:49.243Z,6.20
2022-10-06T04:52:16.497Z,6.90
2022-10-06T04:54:42.972Z,10.60
2022-10-06T04:57:09.536Z,6.30
2022-10-06T04:59:56.283Z,6.20
2022-10-06T05:02:25.344Z,5.90
2022-10-06T05:04:56.481Z,5.00
2022-10-06T05:07:25.046Z,7.00
2022-10-06T05:09:53.008Z,6.10
2022-10-06T05:12:19.490Z,6.10
2022-10-06T05:14:46.112Z,7.60
2022-10-06T05:17:12.812Z,6.40
2022-10-06T05:19:39.355Z,5.70
2022-10-06T05:22:06.984Z,5.40
2022-10-06T05:24:35.253Z,8.50
2022-10-06T05:27:03.814Z,5.00
2022-10-06T05:29:31.678Z,6.50
2022-10-06T05:31:58.292Z,8.80
2022-10-06T05:34:25.674Z,6.30
2022-10-06T05:36:54.178Z,6.80
2022-10-06T05:39:21.153Z,8.60
2022-10-06T05:41:57.223Z,6.80
2022-10-06T05:44:25.082Z,9.10
2022-10-06T05:46:51.680Z,8.80
2022-10-06T05:49:20.831Z,6.60
2022-10-06T05:54:24.321Z,8.10
2022-10-06T05:56:50.766Z,6.90
2022-10-06T05:59:18.441Z,6.30
2022-10-06T06:01:45.221Z,8.30
2022-10-06T06:04:18.515Z,5.50
2022-10-06T06:06:49.903Z,9.70
2022-10-06T06:09:28.196Z,10.70
2022-10-06T06:11:59.679Z,7.70
2022-10-06T06:14:51.719Z,8.10
2022-10-06T06:17:23.007Z,7.60
2022-10-06T06:19:50.626Z,5.80
2022-10-06T06:22:18.002Z,8.20
2022-10-06T06:24:49.212Z,8.50
2022-10-06T06:27:16.869Z,6.60
2022-10-06T06:29:45.078Z,8.10
2022-10-06T06:32:11.718Z,7.20
2022-10-06T06:34:38.475Z,8.00
2022-10-06T06:37:14.866Z,7.00
2022-10-06T06:39:45.108Z,8.90
2022-10-06T06:42:14.583Z,8.60
2022-10-06T06:44:56.403Z,6.90
2022-10-06T06:47:38.400Z,5.40
2022-10-06T06:50:09.541Z,5.60
2022-10-06T06:52:36.888Z,6.60
2022-10-06T06:55:05.213Z,7.40
2022-10-06T06:57:34.811Z,6.50
2022-10-06T07:00:08.457Z,7.50
2022-10-06T07:02:38.987Z,7.20
2022-10-06T07:05:06.470Z,9.30
2022-10-06T07:07:36.303Z,5.40
2022-10-06T07:10:03.515Z,6.40
2022-10-06T07:12:33.596Z,10.10
2022-10-06T07:15:19.736Z,6.50
2022-10-06T07:18:11.137Z,7.70
2022-10-06T07:20:57.250Z,6.00
2022-10-06T07:23:44.962Z,7.00
2022-10-06T07:26:15.928Z,6.80
2022-10-06T07:28:43.067Z,6.50
2022-10-06T07:31:11.124Z,5.80
2022-10-06T07:33:40.162Z,9.40
2022-10-06T07:36:09.571Z,9.00
2022-10-06T07:38:42.206Z,7.70
2022-10-06T07:41:23.860Z,6.50
2022-10-06T07:43:57.069Z,6.60
2022-10-06T07:46:26.764Z,9.90
2022-10-06T07:48:59.920Z,7.30
2022-10-06T07:51:28.642Z,6.80
2022-10-06T07:53:57.648Z,7.60
2022-10-06T07:56:30.373Z,12.30
2022-10-06T07:58:58.599Z,9.10
2022-10-06T08:01:30.363Z,9.30
2022-10-06T08:03:56.950Z,5.10
2022-10-06T08:06:24.382Z,5.00
2022-10-06T08:08:55.950Z,4.10
2022-10-06T08:11:22.666Z,5.80
2022-10-06T08:13:51.532Z,4.20
2022-10-06T08:16:21.135Z,4.30
2022-10-06T08:18:52.939Z,3.30
2022-10-06T08:21:28.264Z,8.10
2022-10-06T08:24:10.144Z,5.60
2022-10-06T08:26:46.127Z,6.20
2022-10-06T08:29:12.705Z,6.80
2022-10-06T08:31:42.227Z,3.90
2022-10-06T08:34:12.190Z,4.40
2022-10-06T08:36:39.567Z,3.10
2022-10-06T08:39:07.305Z,4.40
2022-10-06T08:41:45.435Z,3.70
2022-10-06T08:44:25.223Z,3.70
2022-10-06T08:46:53.775Z,4.50
2022-10-06T08:49:25.088Z,6.40
2022-10-06T08:52:17.795Z,4.30
2022-10-06T08:55:21.060Z,5.50
2022-10-06T08:57:55.733Z,7.40
2022-10-06T09:00:23.761Z,3.90
2022-10-06T09:02:55.453Z,4.40
2022-10-06T09:05:27.613Z,3.50
2022-10-06T09:08:12.401Z,3.80
2022-10-06T09:11:12.359Z,3.10
2022-10-06T09:13:43.736Z,3.40
2022-10-06T09:16:16.028Z,5.40
2022-10-06T09:19:15.000Z,5.50
2022-10-06T09:21:51.557Z,3.30
2022-10-06T09:24:46.238Z,4.80
2022-10-06T09:27:22.510Z,4.20
2022-10-06T09:29:51.343Z,3.80
2022-10-06T09:32:22.053Z,2.00
2022-10-06T09:34:59.465Z,3.00
2022-10-06T09:37:27.584Z,2.70
2022-10-06T09:39:54.520Z,3.80
2022-10-06T09:42:32.434Z,2.50
2022-10-06T09:45:25.838Z,1.40
2022-10-06T09:47:52.639Z,2.50
2022-10-06T09:50:26.890Z,1.50
2022-10-06T09:53:00.197Z,2.70
2022-10-06T09:55:54.837Z,4.30
2022-10-06T09:58:34.084Z,2.20
2022-10-06T10:01:04.263Z,0.90
2022-10-06T10:06:38.871Z,2.90
2022-10-06T10:09:22.037Z,4.80
2022-10-06T10:12:25.933Z,2.60
2022-10-06T10:15:30.675Z,1.60
2022-10-06T10:18:02.479Z,2.30
2022-10-06T10:20:29.022Z,1.20
2022-10-06T10:23:44.064Z,0.70
2022-10-06T10:26:18.687Z,2.20
2022-10-06T10:29:07.250Z,1.90
2022-10-06T10:31:55.306Z,1.50
2022-10-06T10:34:31.528Z,1.60
2022-10-06T10:37:39.364Z,1.80
2022-10-06T10:40:37.140Z,1.30
2022-10-06T10:43:20.964Z,1.40
2022-10-06T10:46:17.128Z,0.90
2022-10-06T10:48:56.374Z,2.90
2022-10-06T10:51:34.156Z,1.90
2022-10-06T10:54:08.530Z,2.30
2022-10-06T10:56:40.322Z,1.40
2022-10-06T10:59:35.961Z,1.50
2022-10-06T11:02:24.898Z,2.20
2022-10-06T11:05:17.561Z,4.00
2022-10-06T11:08:06.980Z,0.40
2022-10-06T11:10:45.745Z,1.30
2022-10-06T11:13:36.195Z,0.30
2022-10-06T11:16:35.960Z,1.30
2022-10-06T11:19:16.109Z,1.60
2022-10-06T11:22:00.959Z,3.10
2022-10-06T11:24:44.958Z,2.30
2022-10-06T11:27:42.423Z,4.30
2022-10-06T11:30:24.121Z,0.70
2022-10-06T11:33:13.028Z,0.70
2022-10-06T11:35:49.006Z,2.50
2022-10-06T11:38:33.286Z,1.40
2022-10-06T11:41:32.095Z,1.70
2022-10-06T11:47:35.931Z,3.00
2022-10-06T11:50:37.016Z,1.30
2022-10-06T11:53:53.998Z,1.60
2022-10-06T11:56:34.455Z,1.00
2022-10-06T11:59:12.725Z,0.20
2022-10-06T12:01:43.621Z,2.10
2022-10-06T12:04:10.277Z,1.50
2022-10-06T12:06:45.518Z,2.50
2022-10-06T12:09:29.530Z,1.00
2022-10-06T12:12:20.798Z,0.40
2022-10-06T12:18:18.100Z,1.80
2022-10-06T12:20:49.541Z,2.70
2022-10-06T12:23:38.379Z,3.90
2022-10-06T12:26:43.391Z,1.50
2022-10-06T12:29:20.355Z,2.30
2022-10-06T12:32:06.957Z,0.60
2022-10-06T12:34:55.753Z,2.30
2022-10-06T12:37:36.103Z,4.30
2022-10-06T12:40:40.351Z,1.00
2022-10-06T12:43:11.715Z,1.10
2022-10-06T12:45:45.918Z,0.70
2022-10-06T12:48:38.512Z,2.60
2022-10-06T12:51:18.317Z,3.30
2022-10-06T12:53:50.630Z,2.40
2022-10-06T12:56:34.328Z,1.50
2022-10-06T12:59:24.349Z,1.20
2022-10-06T13:01:59.261Z,2.60
2022-10-06T13:04:43.558Z,1.60
2022-10-06T13:07:13.850Z,2.10
2022-10-06T13:09:40.779Z,3.20
2022-10-06T13:12:31.073Z,1.10
2022-10-06T13:15:17.475Z,1.30
2022-10-06T13:18:15.349Z,1.20
2022-10-06T13:20:55.032Z,2.60
2022-10-06T13:23:27.939Z,2.00
2022-10-06T13:26:05.249Z,1.10
2022-10-06T13:28:33.702Z,1.40
2022-10-06T13:31:05.797Z,1.70
2022-10-06T13:33:40.448Z,1.30
2022-10-06T13:36:08.593Z,1.40
2022-10-06T13:38:36.207Z,2.10
2022-10-06T13:41:12.992Z,1.90
2022-10-06T13:43:44.903Z,2.20
2022-10-06T13:46:15.424Z,1.90
2022-10-06T13:48:59.360Z,1.10
2022-10-06T13:51:31.280Z,1.20
2022-10-06T13:54:04.049Z,2.10
2022-10-06T13:56:38.259Z,1.70
2022-10-06T13:59:30.360Z,3.00
2022-10-06T14:02:17.334Z,2.20
2022-10-06T14:05:04.452Z,1.90
2022-10-06T14:07:31.918Z,3.30
2022-10-06T14:09:58.367Z,1.50
2022-10-06T14:12:26.246Z,1.80
2022-10-06T14:14:56.068Z,2.00
2022-10-06T14:17:25.482Z,2.70
2022-10-06T14:19:51.999Z,0.80
2022-10-06T14:22:31.746Z,4.10
2022-10-06T14:24:59.518Z,4.70
2022-10-06T14:27:26.306Z,2.10
2022-10-06T14:29:56.536Z,1.40
2022-10-06T14:32:23.294Z,3.40
2022-10-06T14:34:50.812Z,2.80
2022-10-06T14:37:18.014Z,2.60
2022-10-06T14:39:45.495Z,1.40
2022-10-06T14:42:14.444Z,2.30
2022-10-06T14:44:42.946Z,1.60
2022-10-06T14:47:12.097Z,2.60
2022-10-06T14:49:38.795Z,5.10
2022-10-06T14:52:09.922Z,2.30
2022-10-06T14:57:04.845Z,3.10
2022-10-06T14:59:33.238Z,2.70
2022-10-06T15:02:04.301Z,2.60
2022-10-06T15:04:31.240Z,2.20
2022-10-06T15:07:18.537Z,2.00
2022-10-06T15:09:47.687Z,7.40
2022-10-06T15:12:16.798Z,6.50
2022-10-06T15:14:44.486Z,3.50
2022-10-06T15:17:11.220Z,2.80
2022-10-06T15:19:40.184Z,1.70
2022-10-06T15:22:08.440Z,1.80
2022-10-06T15:24:34.942Z,3.20
2022-10-06T15:27:25.011Z,3.60
2022-10-06T15:29:52.335Z,2.70
2022-10-06T15:32:18.830Z,5.20
2022-10-06T15:34:45.367Z,6.40
2022-10-06T15:37:11.883Z,2.70
2022-10-06T15:39:38.381Z,4.80
2022-10-06T15:42:05.454Z,2.90
2022-10-06T15:44:33.879Z,2.40
2022-10-06T15:47:01.175Z,6.60
2022-10-06T15:49:37.563Z,4.20
2022-10-06T15:52:13.049Z,5.10
2022-10-06T15:54:41.865Z,7.50
2022-10-06T15:57:19.434Z,8.70
2022-10-06T15:59:49.583Z,7.60
2022-10-06T16:02:17.470Z,3.40
2022-10-06T16:05:01.930Z,5.90
2022-10-06T16:07:42.471Z,5.30
2022-10-06T16:10:11.262Z,4.70
2022-10-06T16:12:45.473Z,8.60
2022-10-06T16:15:12.213Z,5.60
2022-10-06T16:17:42.736Z,7.90
2022-10-06T16:20:10.797Z,7.90
2022-10-06T16:22:37.699Z,13.20
2022-10-06T16:25:05.667Z,8.90
2022-10-06T16:27:34.901Z,7.90
2022-10-06T16:30:01.555Z,7.70
2022-10-06T16:32:31.418Z,5.70
2022-10-06T16:34:58.067Z,6.60
2022-10-06T16:37:25.587Z,6.00
2022-10-06T16:39:52.304Z,6.40
2022-10-06T16:42:19.136Z,5.40
2022-10-06T16:44:45.678Z,2.50
2022-10-06T16:47:15.394Z,5.30
2022-10-06T16:49:41.893Z,6.30
2022-10-06T16:52:09.885Z,7.60
2022-10-06T16:54:36.378Z,10.60
2022-10-06T16:57:07.015Z,8.80
2022-10-06T16:59:33.745Z,8.90
2022-10-06T17:02:03.064Z,9.90
2022-10-06T17:04:31.355Z,6.90
2022-10-06T17:07:02.667Z,8.90
2022-10-06T17:09:33.670Z,17.40
2022-10-06T17:12:03.620Z,9.80
2022-10-06T17:14:31.605Z,8.70
2022-10-06T17:17:01.522Z,9.30
2022-10-06T17:19:29.361Z,6.80
2022-10-06T17:21:59.475Z,4.70
2022-10-06T17:24:30.566Z,5.70
2022-10-06T17:26:58.461Z,6.70
2022-10-06T17:29:30.950Z,4.40
2022-10-06T17:31:59.138Z,6.40
2022-10-06T17:34:31.720Z,7.10
2022-10-06T17:37:04.528Z,3.70
2022-10-06T17:40:44.793Z,5.10
2022-10-06T17:43:14.913Z,8.80
2022-10-06T17:45:42.794Z,6.50
2022-10-06T17:48:12.253Z,6.20
2022-10-06T17:50:40.055Z,4.20
2022-10-06T17:53:07.909Z,6.70
2022-10-06T17:55:36.704Z,5.60
2022-10-06T17:58:08.059Z,4.90
2022-10-06T18:01:46.445Z,7.10
2022-10-06T18:04:16.491Z,5.80
2022-10-06T18:06:47.677Z,5.90
2022-10-06T18:09:19.401Z,7.00
2022-10-06T18:11:55.880Z,4.60
2022-10-06T18:14:33.972Z,11.20
2022-10-06T18:17:05.928Z,7.40
2022-10-06T18:19:38.403Z,9.00
2022-10-06T18:22:11.679Z,10.10
2022-10-06T18:24:41.615Z,9.10
2022-10-06T18:27:14.089Z,9.20
2022-10-06T18:29:43.790Z,8.80
2022-10-06T18:38:05.173Z,9.10
2022-10-06T18:40:32.951Z,9.70
2022-10-06T18:43:03.069Z,8.70
2022-10-06T18:45:53.730Z,7.60
2022-10-06T18:48:40.230Z,6.40
2022-10-06T18:51:08.209Z,6.30
2022-10-06T18:53:39.260Z,4.60
2022-10-06T18:56:08.249Z,5.70
2022-10-06T18:58:44.324Z,3.90
2022-10-06T19:01:13.550Z,6.20
2022-10-06T19:03:41.663Z,7.90
2022-10-06T19:06:09.604Z,6.90
2022-10-06T19:08:37.678Z,8.30
2022-10-06T19:11:38.876Z,9.00
2022-10-06T19:14:07.175Z,6.40
2022-10-06T19:16:35.203Z,10.70
2022-10-06T19:19:06.501Z,8.00
2022-10-06T19:21:36.929Z,16.80
2022-10-06T19:24:05.585Z,13.00
2022-10-06T19:26:33.906Z,13.70
2022-10-06T19:29:05.026Z,13.70
2022-10-06T19:31:32.846Z,19.90
2022-10-06T19:34:04.164Z,19.60
2022-10-06T19:36:32.512Z,25.00
2022-10-06T19:39:04.171Z,24.20
2022-10-06T19:41:51.758Z,29.50
2022-10-06T19:44:19.559Z,26.10
2022-10-06T19:46:47.645Z,24.20
2022-10-06T19:49:17.175Z,25.00
2022-10-06T19:51:45.376Z,22.80
2022-10-06T19:54:13.483Z,24.30
2022-10-06T19:56:41.707Z,21.80
2022-10-06T19:59:14.291Z,23.10
2022-10-06T20:01:42.772Z,21.70
2022-10-06T20:04:12.993Z,21.70
2022-10-06T20:06:42.263Z,22.40
2022-10-06T20:09:14.993Z,17.60
2022-10-06T20:11:45.196Z,21.40
2022-10-06T20:14:23.501Z,23.20
2022-10-06T20:16:54.470Z,21.30
2022-10-06T20:19:25.623Z,22.60
2022-10-06T20:21:53.595Z,20.10
2022-10-06T20:24:24.497Z,23.20
2022-10-06T20:26:53.772Z,21.10
2022-10-06T20:29:25.240Z,20.10
2022-10-06T20:31:55.278Z,23.20
2022-10-06T20:34:32.482Z,22.30
2022-10-06T20:37:04.904Z,18.20
2022-10-06T20:39:55.208Z,19.40
2022-10-06T20:42:23.260Z,23.70
2022-10-06T20:44:51.131Z,19.10
2022-10-06T20:47:19.196Z,19.30
2022-10-06T20:49:47.218Z,21.60
2022-10-06T20:52:15.178Z,23.20
2022-10-06T20:54:43.367Z,19.90
2022-10-06T20:57:13.018Z,21.40
2022-10-06T20:59:45.268Z,22.30
2022-10-06T21:02:16.606Z,23.90
2022-10-06T21:04:45.246Z,22.00
2022-10-06T21:07:13.045Z,21.30
2022-10-06T21:09:40.795Z,27.50
2022-10-06T21:12:09.219Z,20.50
2022-10-06T21:14:37.844Z,18.70
2022-10-06T21:17:08.125Z,24.80
2022-10-06T21:19:37.675Z,23.40
2022-10-06T21:22:06.099Z,27.70
2022-10-06T21:24:36.585Z,28.40
2022-10-06T21:27:04.515Z,23.90
2022-10-06T21:29:32.335Z,27.10
2022-10-06T21:32:00.417Z,26.00
2022-10-06T21:34:28.167Z,21.90
2022-10-06T21:36:56.153Z,23.20
2022-10-06T21:39:23.925Z,25.20
2022-10-06T21:41:51.688Z,27.60
2022-10-06T21:44:19.677Z,27.90
2022-10-06T21:46:49.443Z,24.20
2022-10-06T21:49:19.725Z,27.60
2022-10-06T21:51:49.868Z,24.00
2022-10-06T21:54:18.555Z,23.70
2022-10-06T21:56:47.195Z,25.70
2022-10-06T21:59:15.349Z,26.60
2022-10-06T22:01:45.359Z,26.90
2022-10-06T22:04:14.487Z,26.40
2022-10-06T22:06:44.619Z,24.70
2022-10-06T22:09:15.171Z,24.80
2022-10-06T22:11:44.146Z,24.40
2022-10-06T22:14:14.115Z,23.20
2022-10-06T22:16:42.828Z,21.60
2022-10-06T22:19:18.464Z,28.30
2022-10-06T22:21:48.405Z,27.50
2022-10-06T22:24:20.691Z,23.40
2022-10-06T22:26:49.395Z,20.90
2022-10-06T22:29:19.010Z,24.60
2022-10-06T22:31:49.103Z,26.80
2022-10-06T22:34:19.713Z,19.70
2022-10-06T22:36:48.406Z,18.70
2022-10-06T22:39:16.674Z,20.60
2022-10-06T22:41:45.344Z,18.40
2022-10-06T22:44:13.121Z,18.40
2022-10-06T22:46:41.507Z,19.10
2022-10-06T22:49:09.596Z,18.90
2022-10-06T22:51:39.612Z,16.20
2022-10-06T22:54:10.056Z,21.20
2022-10-06T22:56:39.451Z,15.40
2022-10-06T22:59:07.155Z,18.40
2022-10-06T23:01:35.070Z,19.50
2022-10-06T23:04:02.930Z,18.40
2022-10-06T23:06:31.570Z,16.50
2022-10-06T23:08:59.604Z,13.90
2022-10-06T23:11:27.960Z,16.00
2022-10-06T23:13:56.549Z,14.30
2022-10-06T23:16:24.968Z,17.00
2022-10-06T23:18:52.835Z,19.60
2022-10-06T23:21:23.914Z,17.30
2022-10-06T23:23:54.152Z,17.60
2022-10-06T23:26:23.234Z,18.80
2022-10-06T23:28:56.341Z,14.60
2022-10-06T23:31:25.216Z,18.80
2022-10-06T23:33:54.184Z,13.40
2022-10-06T23:36:22.164Z,17.20
2022-10-06T23:38:50.148Z,18.50
2022-10-06T23:41:18.852Z,12.30
2022-10-06T23:43:46.593Z,19.80
2022-10-06T23:46:14.894Z,15.10
2022-10-06T23:48:44.184Z,14.10
2022-10-06T23:51:15.351Z,9.80
2022-10-06T23:53:46.013Z,14.80
2022-10-06T23:56:13.839Z,13.30
2022-10-06T23:58:42.945Z,15.90
